createdAt,value
2018-02-16T00:00:14.025Z,53.30
2018-02-16T00:02:49.275Z,48.10
2018-02-16T00:05:24.451Z,58.27
2018-02-16T00:07:59.107Z,64.13
2018-02-16T00:10:34.134Z,51.37
2018-02-16T00:13:10.459Z,55.15
2018-02-16T00:15:45.430Z,64.30
2018-02-16T00:18:20.295Z,61.97
2018-02-16T00:20:55.251Z,55.20
2018-02-16T00:23:30.431Z,59.03
2018-02-16T00:26:05.079Z,57.83
2018-02-16T00:28:40.458Z,52.27
2018-02-16T00:31:16.058Z,59.58
2018-02-16T00:33:51.183Z,55.03
2018-02-16T00:36:26.447Z,63.03
2018-02-16T00:39:01.595Z,59.83
2018-02-16T00:41:36.427Z,51.87
2018-02-16T00:44:11.529Z,52.43
2018-02-16T00:46:46.484Z,59.77
2018-02-16T00:49:21.603Z,56.50
2018-02-16T00:51:56.171Z,52.47
2018-02-16T00:54:31.214Z,56.77
2018-02-16T00:57:05.556Z,61.37
2018-02-16T00:59:40.991Z,56.47
2018-02-16T01:02:16.031Z,59.50
2018-02-16T01:04:51.063Z,63.15
2018-02-16T01:07:25.723Z,55.97
2018-02-16T01:10:01.338Z,50.50
2018-02-16T01:12:36.347Z,62.50
2018-02-16T01:15:11.241Z,67.17
2018-02-16T01:17:46.247Z,53.23
2018-02-16T01:20:21.378Z,62.35
2018-02-16T01:22:56.175Z,64.90
2018-02-16T01:25:31.215Z,58.13
2018-02-16T01:28:06.265Z,57.33
2018-02-16T01:30:41.337Z,66.10
2018-02-16T01:33:15.927Z,61.67
2018-02-16T01:35:51.306Z,52.03
2018-02-16T01:38:26.298Z,58.83
2018-02-16T01:41:01.399Z,53.70
2018-02-16T01:43:36.427Z,59.27
2018-02-16T01:46:11.587Z,55.83
2018-02-16T01:48:46.699Z,53.60
2018-02-16T01:51:21.663Z,63.63
2018-02-16T01:53:56.391Z,50.20
2018-02-16T01:56:31.258Z,47.60
2018-02-16T01:59:05.713Z,51.63
2018-02-16T02:01:40.658Z,50.80
2018-02-16T02:04:15.823Z,49.70
2018-02-16T02:06:50.481Z,51.03
2018-02-16T02:09:25.543Z,45.03
2018-02-16T02:12:00.414Z,46.97
2018-02-16T02:14:35.323Z,51.30
2018-02-16T02:17:10.721Z,46.30
2018-02-16T02:19:45.127Z,49.27
2018-02-16T02:22:20.459Z,53.33
2018-02-16T02:24:54.844Z,53.13
2018-02-16T02:27:30.074Z,51.25
2018-02-16T02:30:05.303Z,52.73
2018-02-16T02:32:40.307Z,54.47
2018-02-16T02:35:15.285Z,55.20
2018-02-16T02:37:50.323Z,46.63
2018-02-16T02:40:25.387Z,44.15
2018-02-16T02:43:00.656Z,44.20
2018-02-16T02:45:35.634Z,49.80
2018-02-16T02:48:10.837Z,45.43
2018-02-16T02:50:45.595Z,49.93
2018-02-16T02:53:20.813Z,53.23
2018-02-16T02:55:55.429Z,49.10
2018-02-16T02:58:30.475Z,48.00
2018-02-16T03:01:05.755Z,50.40
2018-02-16T03:03:40.632Z,44.13
2018-02-16T03:06:15.723Z,44.30
2018-02-16T03:08:50.815Z,47.23
2018-02-16T03:11:25.730Z,53.97
2018-02-16T03:14:00.796Z,52.27
2018-02-16T03:16:35.823Z,40.70
2018-02-16T03:19:10.899Z,42.13
2018-02-16T03:21:45.651Z,40.97
2018-02-16T03:24:20.702Z,44.85
2018-02-16T03:26:55.551Z,48.90
2018-02-16T03:29:30.926Z,44.80
2018-02-16T03:32:05.546Z,42.67
2018-02-16T03:34:40.607Z,32.67
2018-02-16T03:37:15.516Z,39.63
2018-02-16T03:39:50.439Z,39.80
2018-02-16T03:42:25.632Z,37.90
2018-02-16T03:45:00.611Z,40.90
2018-02-16T03:47:35.607Z,46.87
2018-02-16T03:50:10.926Z,44.35
2018-02-16T03:52:46.058Z,42.20
2018-02-16T03:55:21.059Z,42.58
2018-02-16T03:57:56.431Z,35.17
2018-02-16T04:00:31.463Z,42.93
2018-02-16T04:03:06.546Z,40.17
2018-02-16T04:05:41.878Z,35.27
2018-02-16T04:08:16.819Z,33.85
2018-02-16T04:10:51.975Z,37.17
2018-02-16T04:13:27.368Z,45.20
2018-02-16T04:16:02.499Z,38.13
2018-02-16T04:18:37.619Z,37.03
2018-02-16T04:21:12.659Z,36.23
2018-02-16T04:23:47.615Z,37.40
2018-02-16T04:26:22.786Z,37.38
2018-02-16T04:28:57.159Z,31.10
2018-02-16T04:31:31.999Z,35.70
2018-02-16T04:34:07.149Z,37.97
2018-02-16T04:36:41.679Z,39.67
2018-02-16T04:39:16.778Z,42.15
2018-02-16T04:41:51.702Z,39.93
2018-02-16T04:44:27.183Z,37.33
2018-02-16T04:47:01.795Z,34.00
2018-02-16T04:49:36.739Z,37.83
2018-02-16T04:52:11.880Z,41.10
2018-02-16T04:54:46.726Z,42.33
2018-02-16T04:57:21.670Z,41.30
2018-02-16T04:59:56.719Z,41.70
2018-02-16T05:02:31.715Z,38.33
2018-02-16T05:05:06.606Z,38.87
2018-02-16T05:07:41.607Z,37.30
2018-02-16T05:10:16.902Z,34.08
2018-02-16T05:12:51.692Z,44.13
2018-02-16T05:15:26.948Z,38.05
2018-02-16T05:18:01.702Z,34.20
2018-02-16T05:20:36.860Z,36.33
2018-02-16T05:23:12.087Z,35.33
2018-02-16T05:25:47.037Z,40.03
2018-02-16T05:28:22.157Z,37.60
2018-02-16T05:30:56.735Z,39.10
2018-02-16T05:33:31.675Z,41.53
2018-02-16T05:36:07.243Z,40.55
2018-02-16T05:38:42.872Z,37.50
2018-02-16T05:41:17.915Z,35.22
2018-02-16T05:43:52.867Z,40.40
2018-02-16T05:46:27.463Z,44.27
2018-02-16T05:49:03.582Z,42.90
2018-02-16T05:51:38.706Z,38.60
2018-02-16T05:54:13.719Z,42.95
2018-02-16T05:56:48.394Z,42.20
2018-02-16T05:59:23.283Z,45.47
2018-02-16T06:01:58.227Z,38.03
2018-02-16T06:04:33.120Z,42.07
2018-02-16T06:07:08.075Z,37.63
2018-02-16T06:09:42.956Z,35.50
2018-02-16T06:12:18.007Z,42.67
2018-02-16T06:14:52.842Z,33.43
2018-02-16T06:17:27.847Z,37.07
2018-02-16T06:20:03.432Z,37.90
2018-02-16T06:22:38.812Z,35.20
2018-02-16T06:25:13.916Z,40.10
2018-02-16T06:27:48.327Z,31.70
2018-02-16T06:30:23.151Z,33.33
2018-02-16T06:32:58.181Z,33.03
2018-02-16T06:35:33.130Z,29.07
2018-02-16T06:38:08.310Z,35.97
2018-02-16T06:40:43.339Z,35.97
2018-02-16T06:43:18.956Z,34.30
2018-02-16T06:45:53.411Z,40.90
2018-02-16T06:48:28.019Z,35.40
2018-02-16T06:51:02.735Z,39.57
2018-02-16T06:53:37.971Z,32.00
2018-02-16T06:56:13.122Z,33.13
2018-02-16T06:58:47.775Z,43.35
2018-02-16T07:01:23.029Z,33.08
2018-02-16T07:03:57.491Z,37.03
2018-02-16T07:06:33.587Z,36.22
2018-02-16T07:09:08.539Z,40.53
2018-02-16T07:11:43.311Z,46.40
2018-02-16T07:14:18.255Z,38.37
2018-02-16T07:16:53.402Z,29.57
2018-02-16T07:19:28.270Z,37.28
2018-02-16T07:22:03.227Z,35.63
2018-02-16T07:24:38.110Z,35.63
2018-02-16T07:27:13.339Z,36.40
2018-02-16T07:29:48.195Z,39.83
2018-02-16T07:32:23.218Z,36.07
2018-02-16T07:34:58.087Z,35.10
2018-02-16T07:37:32.871Z,31.27
2018-02-16T07:40:07.647Z,38.57
2018-02-16T07:42:42.890Z,30.85
2018-02-16T07:45:17.431Z,34.17
2018-02-16T07:47:52.058Z,32.50
2018-02-16T07:50:27.252Z,34.42
2018-02-16T07:53:02.098Z,28.57
2018-02-16T07:55:37.175Z,35.37
2018-02-16T07:58:12.373Z,30.90
2018-02-16T08:00:47.015Z,34.23
2018-02-16T08:03:22.422Z,29.35
2018-02-16T08:05:57.174Z,30.90
2018-02-16T08:08:32.015Z,39.13
2018-02-16T08:11:07.202Z,22.90
2018-02-16T08:13:42.195Z,24.53
2018-02-16T08:16:17.335Z,30.48
2018-02-16T08:18:52.190Z,29.60
2018-02-16T08:21:27.260Z,27.92
2018-02-16T08:24:02.311Z,23.43
2018-02-16T08:26:37.563Z,33.47
2018-02-16T08:29:12.804Z,27.77
2018-02-16T08:31:47.445Z,22.30
2018-02-16T08:34:22.695Z,29.83
2018-02-16T08:36:58.251Z,19.70
2018-02-16T08:39:33.150Z,27.30
2018-02-16T08:42:08.229Z,13.77
2018-02-16T08:44:43.494Z,20.20
2018-02-16T08:47:18.311Z,25.58
2018-02-16T08:49:53.171Z,26.27
2018-02-16T08:52:28.542Z,21.70
2018-02-16T08:55:03.477Z,26.30
2018-02-16T08:57:38.339Z,25.27
2018-02-16T09:00:13.343Z,21.80
2018-02-16T09:02:48.510Z,19.40
2018-02-16T09:05:23.299Z,21.13
2018-02-16T09:07:58.547Z,17.30
2018-02-16T09:10:33.671Z,17.50
2018-02-16T09:13:08.603Z,18.33
2018-02-16T09:15:43.655Z,15.30
2018-02-16T09:18:18.711Z,18.13
2018-02-16T09:20:53.639Z,16.53
2018-02-16T09:23:29.195Z,14.10
2018-02-16T09:26:04.223Z,15.47
2018-02-16T09:28:39.011Z,12.53
2018-02-16T09:31:14.235Z,16.53
2018-02-16T09:33:49.317Z,20.30
2018-02-16T09:36:24.305Z,20.15
2018-02-16T09:39:00.067Z,12.43
2018-02-16T09:41:35.248Z,14.50
2018-02-16T09:44:11.571Z,16.05
2018-02-16T09:46:46.021Z,21.00
2018-02-16T09:49:21.478Z,18.55
2018-02-16T09:51:56.491Z,15.37
2018-02-16T09:54:31.440Z,17.57
2018-02-16T09:57:06.343Z,19.73
2018-02-16T09:59:41.388Z,16.43
2018-02-16T10:02:16.639Z,21.20
2018-02-16T10:04:51.619Z,12.00
2018-02-16T10:07:27.344Z,14.07
2018-02-16T10:10:01.579Z,6.70
2018-02-16T10:12:36.414Z,10.53
2018-02-16T10:15:11.763Z,16.30
2018-02-16T10:17:46.391Z,18.00
2018-02-16T10:20:21.376Z,15.90
2018-02-16T10:22:56.419Z,13.43
2018-02-16T10:25:31.311Z,16.27
2018-02-16T10:28:06.440Z,10.10
2018-02-16T10:30:41.258Z,14.90
2018-02-16T10:33:15.948Z,10.80
2018-02-16T10:35:51.282Z,11.45
2018-02-16T10:38:25.986Z,15.67
2018-02-16T10:41:01.307Z,11.98
2018-02-16T10:43:35.739Z,12.93
2018-02-16T10:46:11.686Z,14.90
2018-02-16T10:48:46.535Z,11.30
2018-02-16T10:51:21.498Z,13.60
2018-02-16T10:53:56.595Z,14.70
2018-02-16T10:56:31.551Z,12.73
2018-02-16T10:59:06.604Z,15.40
2018-02-16T11:01:44.991Z,10.20
2018-02-16T11:07:24.468Z,7.70
2018-02-16T11:09:59.447Z,12.20
2018-02-16T11:12:34.438Z,17.47
2018-02-16T11:15:09.591Z,16.60
2018-02-16T11:17:44.743Z,13.00
2018-02-16T11:20:19.778Z,11.63
2018-02-16T11:22:54.776Z,13.97
2018-02-16T11:25:29.847Z,13.27
2018-02-16T11:28:04.794Z,12.67
2018-02-16T11:30:39.890Z,12.50
2018-02-16T11:33:14.962Z,14.40
2018-02-16T11:35:49.533Z,22.03
2018-02-16T11:38:24.679Z,14.57
2018-02-16T11:40:59.486Z,9.53
2018-02-16T11:43:34.553Z,10.00
2018-02-16T11:46:09.023Z,12.70
2018-02-16T11:48:43.983Z,14.87
2018-02-16T11:51:18.843Z,13.13
2018-02-16T11:53:53.983Z,15.90
2018-02-16T11:56:29.218Z,11.30
2018-02-16T11:59:03.355Z,16.87
2018-02-16T12:01:38.694Z,8.97
2018-02-16T12:04:13.598Z,12.80
2018-02-16T12:06:48.532Z,13.90
2018-02-16T12:09:23.811Z,8.40
2018-02-16T12:11:58.600Z,12.40
2018-02-16T12:14:33.663Z,13.97
2018-02-16T12:17:08.735Z,11.63
2018-02-16T12:19:43.598Z,9.15
2018-02-16T12:22:17.852Z,12.70
2018-02-16T12:24:52.485Z,11.85
2018-02-16T12:27:27.148Z,14.83
2018-02-16T12:30:01.602Z,10.33
2018-02-16T12:32:36.655Z,18.27
2018-02-16T12:35:11.944Z,10.23
2018-02-16T12:37:46.623Z,13.65
2018-02-16T12:40:21.232Z,13.37
2018-02-16T12:42:56.092Z,15.90
2018-02-16T12:45:31.583Z,16.12
2018-02-16T12:48:06.258Z,13.20
2018-02-16T12:50:41.595Z,10.45
2018-02-16T12:53:16.711Z,9.10
2018-02-16T12:55:51.593Z,11.98
2018-02-16T12:58:26.209Z,7.77
2018-02-16T13:01:01.620Z,8.23
2018-02-16T13:03:36.731Z,5.50
2018-02-16T13:06:12.142Z,7.10
2018-02-16T13:08:47.791Z,8.03
2018-02-16T13:11:22.207Z,7.90
2018-02-16T13:13:57.071Z,11.00
2018-02-16T13:16:32.078Z,9.27
2018-02-16T13:19:07.107Z,9.93
2018-02-16T13:21:42.919Z,8.10
2018-02-16T13:24:18.043Z,9.60
2018-02-16T13:26:52.828Z,7.90
2018-02-16T13:29:28.021Z,9.90
2018-02-16T13:32:02.911Z,8.30
2018-02-16T13:34:37.803Z,12.40
2018-02-16T13:37:12.742Z,13.35
2018-02-16T13:39:47.184Z,19.07
2018-02-16T13:42:22.175Z,9.32
2018-02-16T13:44:57.211Z,10.43
2018-02-16T13:47:32.262Z,10.27
2018-02-16T13:50:07.435Z,9.27
2018-02-16T13:52:42.352Z,10.07
2018-02-16T13:55:17.413Z,6.97
2018-02-16T13:57:52.223Z,9.30
2018-02-16T14:00:27.123Z,10.30
2018-02-16T14:03:01.998Z,5.80
2018-02-16T14:05:36.927Z,7.87
2018-02-16T14:08:12.186Z,13.43
2018-02-16T14:10:46.834Z,5.53
2018-02-16T14:13:22.105Z,8.75
2018-02-16T14:15:57.006Z,16.20
2018-02-16T14:18:32.017Z,14.00
2018-02-16T14:21:07.154Z,12.83
2018-02-16T14:23:42.098Z,7.90
2018-02-16T14:26:17.159Z,6.33
2018-02-16T14:28:52.068Z,3.37
2018-02-16T14:31:27.115Z,4.95
2018-02-16T14:34:01.975Z,8.70
2018-02-16T14:36:36.534Z,9.67
2018-02-16T14:39:12.192Z,6.05
2018-02-16T14:41:47.157Z,8.97
2018-02-16T14:44:22.319Z,3.55
2018-02-16T14:46:57.295Z,10.77
2018-02-16T14:49:31.931Z,8.57
2018-02-16T14:52:07.015Z,9.63
2018-02-16T14:54:41.944Z,7.97
2018-02-16T14:57:16.903Z,14.80
2018-02-16T14:59:51.900Z,6.70
2018-02-16T15:02:26.567Z,6.07
2018-02-16T15:05:01.596Z,6.30
2018-02-16T15:07:36.399Z,4.33
2018-02-16T15:10:12.267Z,8.27
2018-02-16T15:12:47.262Z,5.53
2018-02-16T15:15:22.235Z,7.30
2018-02-16T15:17:57.962Z,5.77
2018-02-16T15:20:32.694Z,8.07
2018-02-16T15:23:07.999Z,7.00
2018-02-16T15:25:43.055Z,5.90
2018-02-16T15:28:18.239Z,4.15
2018-02-16T15:30:52.843Z,5.20
2018-02-16T15:33:28.218Z,10.20
2018-02-16T15:36:03.116Z,11.03
2018-02-16T15:38:38.116Z,6.87
2018-02-16T15:41:13.147Z,6.27
2018-02-16T15:43:48.014Z,8.13
2018-02-16T15:46:23.251Z,12.15
2018-02-16T15:48:58.451Z,7.93
2018-02-16T15:51:33.184Z,7.67
2018-02-16T15:54:08.166Z,10.10
2018-02-16T15:56:42.995Z,6.32
2018-02-16T15:59:17.639Z,4.43
2018-02-16T16:01:52.596Z,8.90
2018-02-16T16:04:27.514Z,6.50
2018-02-16T16:07:02.598Z,7.30
2018-02-16T16:09:37.511Z,6.97
2018-02-16T16:12:12.482Z,9.93
2018-02-16T16:14:47.375Z,6.80
2018-02-16T16:17:22.866Z,7.77
2018-02-16T16:19:58.211Z,7.40
2018-02-16T16:22:33.214Z,8.20
2018-02-16T16:25:08.207Z,4.87
2018-02-16T16:27:43.019Z,7.65
2018-02-16T16:30:18.319Z,5.12
2018-02-16T16:32:53.259Z,7.37
2018-02-16T16:35:28.418Z,7.53
2018-02-16T16:38:03.263Z,14.13
2018-02-16T16:40:38.263Z,10.73
2018-02-16T16:43:13.559Z,14.03
2018-02-16T16:45:48.358Z,8.90
2018-02-16T16:48:23.423Z,8.15
2018-02-16T16:50:58.330Z,9.83
2018-02-16T16:53:33.378Z,6.40
2018-02-16T16:56:09.347Z,7.67
2018-02-16T16:58:44.247Z,13.63
2018-02-16T17:01:18.315Z,9.93
2018-02-16T17:03:52.496Z,6.10
2018-02-16T17:06:27.461Z,7.47
2018-02-16T17:09:02.589Z,8.57
2018-02-16T17:11:37.375Z,15.63
2018-02-16T17:14:12.667Z,13.00
2018-02-16T17:16:47.527Z,7.60
2018-02-16T17:19:22.099Z,7.30
2018-02-16T17:21:57.454Z,8.27
2018-02-16T17:24:32.026Z,9.67
2018-02-16T17:27:07.286Z,9.77
2018-02-16T17:29:42.359Z,6.53
2018-02-16T17:32:16.895Z,6.17
2018-02-16T17:34:52.286Z,5.67
2018-02-16T17:37:27.216Z,11.20
2018-02-16T17:40:02.278Z,9.40
2018-02-16T17:42:37.287Z,7.33
2018-02-16T17:45:12.180Z,14.17
2018-02-16T17:47:46.899Z,20.73
2018-02-16T17:50:21.786Z,10.70
2018-02-16T17:52:56.744Z,14.43
2018-02-16T17:55:32.004Z,17.20
2018-02-16T17:58:07.016Z,11.23
2018-02-16T18:00:41.672Z,11.50
2018-02-16T18:03:16.782Z,11.23
2018-02-16T18:05:51.727Z,12.03
2018-02-16T18:08:26.563Z,10.90
2018-02-16T18:11:01.170Z,10.53
2018-02-16T18:13:36.312Z,15.60
2018-02-16T18:16:11.722Z,17.60
2018-02-16T18:18:46.803Z,10.13
2018-02-16T18:21:22.614Z,12.80
2018-02-16T18:23:57.839Z,13.20
2018-02-16T18:26:32.951Z,11.80
2018-02-16T18:29:07.971Z,10.17
2018-02-16T18:31:42.799Z,14.87
2018-02-16T18:34:17.419Z,16.67
2018-02-16T18:36:52.762Z,14.27
2018-02-16T18:39:28.001Z,12.30
2018-02-16T18:42:02.787Z,8.50
2018-02-16T18:44:37.423Z,21.00
2018-02-16T18:47:12.127Z,10.73
2018-02-16T18:49:47.514Z,12.30
2018-02-16T18:52:22.235Z,7.40
2018-02-16T18:54:57.399Z,11.40
2018-02-16T18:57:32.143Z,12.30
2018-02-16T19:00:06.706Z,10.53
2018-02-16T19:02:42.743Z,7.73
2018-02-16T19:05:17.975Z,10.40
2018-02-16T19:07:52.919Z,10.13
2018-02-16T19:10:27.379Z,9.20
2018-02-16T19:13:02.602Z,8.23
2018-02-16T19:15:37.182Z,11.90
2018-02-16T19:18:12.038Z,15.15
2018-02-16T19:20:46.979Z,13.77
2018-02-16T19:23:22.031Z,10.67
2018-02-16T19:25:56.878Z,15.60
2018-02-16T19:28:31.622Z,12.50
2018-02-16T19:31:06.710Z,14.43
2018-02-16T19:33:41.731Z,11.03
2018-02-16T19:36:17.800Z,14.03
2018-02-16T19:38:54.067Z,11.32
2018-02-16T19:41:29.610Z,15.93
2018-02-16T19:44:04.104Z,10.30
2018-02-16T19:46:39.480Z,11.47
2018-02-16T19:49:14.795Z,11.80
2018-02-16T19:51:50.354Z,14.73
2018-02-16T19:54:24.893Z,9.60
2018-02-16T19:57:00.303Z,11.90
2018-02-16T19:59:35.992Z,8.87
2018-02-16T20:02:10.998Z,12.40
2018-02-16T20:04:46.466Z,7.80
2018-02-16T20:07:21.438Z,8.27
2018-02-16T20:09:56.488Z,12.37
2018-02-16T20:12:31.594Z,11.57
2018-02-16T20:15:07.018Z,12.68
2018-02-16T20:17:42.157Z,13.55
2018-02-16T20:20:16.995Z,13.53
2018-02-16T20:22:51.255Z,12.37
2018-02-16T20:25:26.616Z,23.03
2018-02-16T20:28:01.307Z,15.73
2018-02-16T20:30:36.325Z,18.40
2018-02-16T20:33:11.179Z,12.23
2018-02-16T20:35:46.518Z,12.03
2018-02-16T20:38:21.530Z,19.17
2018-02-16T20:40:56.176Z,16.10
2018-02-16T20:43:31.167Z,18.87
2018-02-16T20:46:06.485Z,14.70
2018-02-16T20:48:41.419Z,13.65
2018-02-16T20:51:16.310Z,17.53
2018-02-16T20:53:51.510Z,12.60
2018-02-16T20:56:26.531Z,11.27
2018-02-16T20:59:01.587Z,12.20
2018-02-16T21:01:36.447Z,16.03
2018-02-16T21:04:11.668Z,22.97
2018-02-16T21:06:46.494Z,12.43
2018-02-16T21:09:21.822Z,14.90
2018-02-16T21:11:56.871Z,12.57
2018-02-16T21:14:31.843Z,14.70
2018-02-16T21:17:07.291Z,13.00
2018-02-16T21:19:42.911Z,15.53
2018-02-16T21:22:18.243Z,19.23
2018-02-16T21:24:53.172Z,14.55
2018-02-16T21:27:28.095Z,12.80
2018-02-16T21:30:02.658Z,13.33
2018-02-16T21:32:37.720Z,10.63
2018-02-16T21:35:12.509Z,10.63
2018-02-16T21:37:47.415Z,12.53
2018-02-16T21:40:22.218Z,15.13
2018-02-16T21:42:57.299Z,12.88
2018-02-16T21:45:32.419Z,14.63
2018-02-16T21:48:07.403Z,11.60
2018-02-16T21:50:41.786Z,12.73
2018-02-16T21:53:17.240Z,13.97
2018-02-16T21:55:52.531Z,13.23
2018-02-16T21:58:27.791Z,13.63
2018-02-16T22:01:03.176Z,17.67
2018-02-16T22:03:37.847Z,31.63
2018-02-16T22:06:12.792Z,24.73
2018-02-16T22:08:47.869Z,16.77
2018-02-16T22:11:22.473Z,19.03
2018-02-16T22:13:57.768Z,13.32
2018-02-16T22:16:32.438Z,16.53
2018-02-16T22:19:07.650Z,14.83
2018-02-16T22:21:42.387Z,13.53
2018-02-16T22:24:17.438Z,20.37
2018-02-16T22:26:52.074Z,16.63
2018-02-16T22:29:26.823Z,14.43
2018-02-16T22:32:01.683Z,12.23
2018-02-16T22:34:36.367Z,16.27
2018-02-16T22:37:11.331Z,13.27
2018-02-16T22:39:46.726Z,13.50
2018-02-16T22:42:21.475Z,12.83
2018-02-16T22:44:56.724Z,11.12
2018-02-16T22:47:31.823Z,13.07
2018-02-16T22:50:06.975Z,12.10
2018-02-16T22:52:42.013Z,15.23
2018-02-16T22:55:16.464Z,10.90
2018-02-16T22:57:51.229Z,12.02
2018-02-16T23:00:25.917Z,16.40
2018-02-16T23:03:01.423Z,12.00
2018-02-16T23:05:36.547Z,13.10
2018-02-16T23:08:11.590Z,15.50
2018-02-16T23:10:46.947Z,14.70
2018-02-16T23:13:21.730Z,13.80
2018-02-16T23:15:56.815Z,17.07
2018-02-16T23:18:31.834Z,11.03
2018-02-16T23:21:06.907Z,16.07
2018-02-16T23:23:41.418Z,11.67
2018-02-16T23:26:16.746Z,13.50
2018-02-16T23:28:51.703Z,26.53
2018-02-16T23:31:27.004Z,26.90
2018-02-16T23:34:02.623Z,28.58
2018-02-16T23:36:38.287Z,18.43
2018-02-16T23:39:13.591Z,16.70
2018-02-16T23:41:48.887Z,12.67
2018-02-16T23:44:23.893Z,13.10
2018-02-16T23:46:59.530Z,15.73
2018-02-16T23:49:34.532Z,14.63
2018-02-16T23:52:09.567Z,18.27
2018-02-16T23:54:44.832Z,9.57
2018-02-16T23:57:18.988Z,14.63
2018-02-16T23:59:53.426Z,13.10
